createdAt,value
2022-09-03T00:00:19.480Z,85.03
2022-09-03T00:06:17.718Z,85.19
2022-09-03T00:11:27.380Z,84.80
2022-09-03T00:16:59.485Z,84.94
2022-09-03T00:22:29.937Z,85.15
2022-09-03T00:27:37.201Z,85.38
2022-09-03T00:32:58.827Z,85.30
2022-09-03T00:38:02.070Z,85.66
2022-09-03T00:43:28.794Z,86.14
2022-09-03T00:48:41.801Z,85.95
2022-09-03T00:54:17.322Z,86.14
2022-09-03T00:59:41.460Z,86.45
2022-09-03T01:05:05.034Z,86.71
2022-09-03T01:10:30.836Z,86.48
2022-09-03T01:15:59.868Z,86.63
2022-09-03T01:21:15.029Z,86.72
2022-09-03T01:26:23.642Z,86.94
2022-09-03T01:31:39.042Z,87.34
2022-09-03T01:36:46.926Z,87.56
2022-09-03T01:42:20.575Z,87.57
2022-09-03T01:47:50.478Z,87.97
2022-09-03T01:53:13.174Z,88.01
2022-09-03T01:58:33.513Z,88.17
2022-09-03T02:03:41.506Z,88.51
2022-09-03T02:08:44.854Z,88.31
2022-09-03T02:13:52.985Z,88.37
2022-09-03T02:19:05.915Z,88.32
2022-09-03T02:24:09.495Z,88.13
2022-09-03T02:29:13.594Z,88.28
2022-09-03T02:34:16.442Z,88.17
2022-09-03T02:39:19.671Z,88.09
2022-09-03T02:44:31.636Z,88.09
2022-09-03T02:49:34.968Z,88.24
2022-09-03T02:54:41.973Z,88.79
2022-09-03T02:59:45.876Z,89.23
2022-09-03T03:04:49.322Z,89.28
2022-09-03T03:09:52.481Z,89.38
2022-09-03T03:14:56.285Z,89.37
2022-09-03T03:19:59.081Z,89.14
2022-09-03T03:25:01.977Z,89.02
2022-09-03T03:30:05.339Z,88.93
2022-09-03T03:35:08.406Z,89.12
2022-09-03T03:40:11.974Z,89.11
2022-09-03T03:45:14.928Z,88.62
2022-09-03T03:50:17.940Z,88.71
2022-09-03T03:55:21.962Z,88.67
2022-09-03T04:00:24.872Z,88.42
2022-09-03T04:05:27.653Z,88.59
2022-09-03T04:10:37.447Z,88.53
2022-09-03T04:15:41.087Z,88.91
2022-09-03T04:20:44.134Z,88.57
2022-09-03T04:25:53.195Z,88.47
2022-09-03T04:31:04.531Z,88.37
2022-09-03T04:36:12.225Z,88.44
2022-09-03T04:41:18.022Z,88.39
2022-09-03T04:46:23.576Z,88.43
2022-09-03T04:51:28.189Z,88.37
2022-09-03T04:56:34.111Z,88.61
2022-09-03T05:01:39.359Z,88.55
2022-09-03T05:06:43.641Z,88.15
2022-09-03T05:11:47.005Z,87.88
2022-09-03T05:16:53.076Z,87.57
2022-09-03T05:21:56.150Z,86.98
2022-09-03T05:26:59.108Z,86.30
2022-09-03T05:32:03.181Z,85.87
2022-09-03T05:37:06.055Z,84.60
2022-09-03T05:42:09.153Z,83.76
2022-09-03T05:47:12.084Z,83.22
2022-09-03T05:52:16.955Z,82.91
2022-09-03T05:57:19.797Z,82.21
2022-09-03T06:02:22.975Z,81.12
2022-09-03T06:07:27.668Z,73.08
2022-09-03T06:12:30.538Z,62.44
2022-09-03T06:17:33.480Z,54.51
2022-09-03T06:22:36.407Z,47.24
2022-09-03T06:27:39.256Z,40.42
2022-09-03T06:32:46.019Z,36.86
2022-09-03T06:37:49.256Z,36.71
2022-09-03T06:43:02.743Z,36.23
2022-09-03T06:48:06.068Z,40.57
2022-09-03T06:53:09.429Z,44.03
2022-09-03T06:58:12.304Z,45.65
2022-09-03T07:03:18.061Z,48.44
2022-09-03T07:08:20.879Z,51.03
2022-09-03T07:13:26.164Z,52.51
2022-09-03T07:18:29.008Z,54.32
2022-09-03T07:23:33.567Z,52.38
2022-09-03T07:28:38.498Z,45.99
2022-09-03T07:33:42.532Z,42.04
2022-09-03T07:38:45.781Z,40.25
2022-09-03T07:43:49.254Z,37.64
2022-09-03T07:48:58.176Z,35.30
2022-09-03T07:54:04.059Z,35.64
2022-09-03T07:59:07.761Z,34.73
2022-09-03T08:04:12.010Z,32.46
2022-09-03T08:09:15.024Z,31.58
2022-09-03T08:14:19.202Z,33.05
2022-09-03T08:19:23.520Z,33.36
2022-09-03T08:24:26.556Z,33.07
2022-09-03T08:29:29.355Z,32.51
2022-09-03T08:34:32.708Z,34.25
2022-09-03T08:39:35.974Z,35.57
2022-09-03T08:44:50.030Z,35.53
2022-09-03T08:50:18.326Z,34.96
2022-09-03T08:55:34.490Z,35.40
2022-09-03T09:00:40.200Z,37.32
2022-09-03T09:06:07.291Z,38.22
2022-09-03T09:11:48.801Z,35.35
2022-09-03T09:16:57.536Z,36.48
2022-09-03T09:22:38.560Z,36.14
2022-09-03T09:27:55.266Z,37.48
2022-09-03T09:33:00.633Z,37.27
2022-09-03T09:38:03.874Z,38.22
2022-09-03T09:43:12.385Z,39.18
2022-09-03T09:48:33.725Z,39.60
2022-09-03T09:53:36.914Z,40.14
2022-09-03T09:58:40.173Z,40.82
2022-09-03T10:03:58.156Z,39.40
2022-09-03T10:09:12.708Z,39.93
2022-09-03T10:14:24.229Z,40.35
2022-09-03T10:20:14.764Z,39.58
2022-09-03T10:25:21.296Z,39.25
2022-09-03T10:30:25.478Z,38.30
2022-09-03T10:35:42.521Z,38.70
2022-09-03T10:41:03.391Z,38.83
2022-09-03T10:46:29.007Z,41.01
2022-09-03T10:52:10.034Z,40.99
2022-09-03T10:57:25.102Z,41.58
2022-09-03T11:03:00.320Z,41.45
2022-09-03T11:08:10.149Z,42.12
2022-09-03T11:13:18.963Z,40.81
2022-09-03T11:18:27.215Z,40.86
2022-09-03T11:23:36.457Z,41.36
2022-09-03T11:28:52.131Z,41.29
2022-09-03T11:34:06.442Z,41.09
2022-09-03T11:39:19.111Z,41.73
2022-09-03T11:44:22.123Z,41.11
2022-09-03T11:49:33.663Z,41.14
2022-09-03T11:54:47.148Z,40.93
2022-09-03T11:59:50.409Z,40.67
2022-09-03T12:05:19.640Z,40.67
2022-09-03T12:10:41.855Z,40.53
2022-09-03T12:16:08.641Z,40.14
2022-09-03T12:21:11.764Z,39.74
2022-09-03T12:26:20.646Z,40.22
2022-09-03T12:31:31.242Z,40.84
2022-09-03T12:36:41.608Z,41.27
2022-09-03T12:42:05.839Z,41.32
2022-09-03T12:52:45.265Z,41.63
2022-09-03T12:58:02.192Z,41.77
2022-09-03T13:03:16.501Z,40.83
2022-09-03T13:08:23.813Z,41.20
2022-09-03T13:13:30.143Z,41.47
2022-09-03T13:18:49.187Z,41.92
2022-09-03T13:24:06.631Z,41.73
2022-09-03T13:29:15.391Z,41.28
2022-09-03T13:34:38.419Z,41.53
2022-09-03T13:39:51.338Z,41.47
2022-09-03T13:45:06.355Z,40.85
2022-09-03T13:50:24.381Z,41.04
2022-09-03T13:55:43.588Z,41.07
2022-09-03T14:00:54.311Z,41.51
2022-09-03T14:06:08.982Z,41.32
2022-09-03T14:11:28.063Z,41.69
2022-09-03T14:17:00.240Z,42.02
2022-09-03T14:22:49.820Z,41.56
2022-09-03T14:27:54.788Z,41.69
2022-09-03T14:33:24.655Z,41.47
2022-09-03T14:38:27.563Z,41.96
2022-09-03T14:43:51.770Z,41.55
2022-09-03T14:49:14.684Z,41.62
2022-09-03T14:54:36.300Z,40.90
2022-09-03T15:00:01.452Z,40.54
2022-09-03T15:05:31.155Z,41.48
2022-09-03T15:10:46.990Z,41.70
2022-09-03T15:16:01.773Z,40.95
2022-09-03T15:21:29.448Z,40.95
2022-09-03T15:26:41.886Z,41.24
2022-09-03T15:32:23.341Z,41.44
2022-09-03T15:37:34.661Z,41.01
2022-09-03T15:42:38.676Z,41.22
2022-09-03T15:47:51.910Z,41.71
2022-09-03T15:52:55.119Z,41.63
2022-09-03T15:58:19.491Z,41.38
2022-09-03T16:03:56.191Z,41.51
2022-09-03T16:09:09.760Z,42.64
2022-09-03T16:14:22.251Z,43.32
2022-09-03T16:19:38.417Z,43.22
2022-09-03T16:24:51.593Z,44.06
2022-09-03T16:29:59.706Z,45.21
2022-09-03T16:35:09.365Z,45.69
2022-09-03T16:40:37.116Z,46.11
2022-09-03T16:45:43.105Z,46.72
2022-09-03T16:51:04.509Z,47.42
2022-09-03T16:56:39.719Z,48.12
2022-09-03T17:01:52.765Z,48.69
2022-09-03T17:07:04.026Z,49.39
2022-09-03T17:12:28.196Z,50.04
2022-09-03T17:17:44.213Z,50.71
2022-09-03T17:22:56.136Z,51.24
2022-09-03T17:28:21.448Z,52.03
2022-09-03T17:33:35.731Z,53.00
2022-09-03T17:39:06.957Z,53.59
2022-09-03T17:44:27.309Z,54.04
2022-09-03T17:49:41.483Z,54.95
2022-09-03T17:54:49.609Z,55.76
2022-09-03T18:00:05.591Z,56.54
2022-09-03T18:05:24.167Z,57.08
2022-09-03T18:10:42.067Z,57.71
2022-09-03T18:15:51.992Z,58.37
2022-09-03T18:21:27.766Z,59.08
2022-09-03T18:26:56.053Z,59.31
2022-09-03T18:32:18.923Z,59.66
2022-09-03T18:37:44.156Z,59.87
2022-09-03T18:43:24.399Z,59.59
2022-09-03T18:49:07.977Z,59.71
2022-09-03T18:55:08.651Z,60.17
2022-09-03T19:00:34.901Z,60.85
2022-09-03T19:06:34.975Z,61.39
2022-09-03T19:12:15.223Z,61.78
2022-09-03T19:17:45.548Z,62.07
2022-09-03T19:23:06.734Z,62.48
2022-09-03T19:28:42.279Z,62.86
2022-09-03T19:34:10.795Z,63.14
2022-09-03T19:39:43.982Z,63.24
2022-09-03T19:45:29.143Z,63.48
2022-09-03T19:50:56.353Z,63.90
2022-09-03T19:56:22.488Z,64.23
2022-09-03T20:01:51.714Z,64.66
2022-09-03T20:07:16.249Z,64.73
2022-09-03T20:12:23.343Z,64.91
2022-09-03T20:17:49.189Z,64.99
2022-09-03T20:23:03.333Z,65.72
2022-09-03T20:28:33.811Z,65.94
2022-09-03T20:33:57.911Z,66.40
2022-09-03T20:39:15.754Z,66.67
2022-09-03T20:44:26.216Z,66.79
2022-09-03T20:50:04.423Z,67.30
2022-09-03T20:55:19.848Z,67.40
2022-09-03T21:00:23.770Z,67.81
2022-09-03T21:05:52.691Z,67.91
2022-09-03T21:11:10.159Z,68.19
2022-09-03T21:16:37.893Z,67.87
2022-09-03T21:21:52.733Z,67.78
2022-09-03T21:27:11.199Z,67.63
2022-09-03T21:32:20.426Z,67.81
2022-09-03T21:37:24.664Z,67.91
2022-09-03T21:42:46.261Z,67.74
2022-09-03T21:47:54.016Z,68.10
2022-09-03T21:53:13.639Z,68.10
2022-09-03T21:58:25.924Z,68.33
2022-09-03T22:03:29.111Z,68.52
2022-09-03T22:08:46.441Z,68.39
2022-09-03T22:13:59.221Z,68.66
2022-09-03T22:19:02.219Z,68.66
2022-09-03T22:24:58.988Z,68.86
2022-09-03T22:30:11.508Z,69.20
2022-09-03T22:35:23.352Z,69.38
2022-09-03T22:40:35.409Z,69.67
2022-09-03T22:46:05.774Z,69.72
2022-09-03T22:51:09.371Z,69.71
2022-09-03T22:56:15.978Z,69.94
2022-09-03T23:01:34.989Z,70.38
2022-09-03T23:06:51.162Z,70.56
2022-09-03T23:12:29.948Z,70.28
2022-09-03T23:17:40.101Z,70.59
2022-09-03T23:22:59.537Z,70.89
2022-09-03T23:28:20.941Z,71.07
2022-09-03T23:33:23.768Z,71.29
2022-09-03T23:39:05.127Z,71.35
2022-09-03T23:44:46.022Z,71.26
2022-09-03T23:50:27.155Z,71.42
2022-09-03T23:55:52.369Z,71.26
